createdAt,value
2023-02-28T00:01:31.354Z,64.00
2023-02-28T00:03:59.713Z,63.72
2023-02-28T00:06:27.824Z,64.00
2023-02-28T00:08:55.958Z,64.02
2023-02-28T00:11:24.225Z,64.04
2023-02-28T00:13:52.297Z,64.38
2023-02-28T00:16:23.682Z,64.60
2023-02-28T00:18:52.346Z,64.55
2023-02-28T00:21:21.263Z,64.81
2023-02-28T00:23:49.614Z,64.75
2023-02-28T00:26:20.031Z,65.04
2023-02-28T00:28:49.997Z,65.22
2023-02-28T00:31:18.008Z,65.56
2023-02-28T00:33:46.182Z,65.81
2023-02-28T00:36:16.227Z,65.83
2023-02-28T00:38:44.278Z,66.05
2023-02-28T00:41:12.855Z,66.34
2023-02-28T00:43:41.353Z,66.07
2023-02-28T00:46:09.755Z,66.49
2023-02-28T00:48:37.954Z,66.65
2023-02-28T00:51:06.779Z,67.04
2023-02-28T00:53:34.953Z,66.81
2023-02-28T00:56:03.958Z,67.13
2023-02-28T00:58:33.756Z,67.06
2023-02-28T01:01:02.041Z,67.08
2023-02-28T01:03:30.224Z,67.43
2023-02-28T01:05:58.786Z,67.73
2023-02-28T01:08:27.891Z,67.61
2023-02-28T01:10:55.970Z,67.92
2023-02-28T01:13:26.379Z,67.71
2023-02-28T01:15:57.137Z,68.39
2023-02-28T01:18:26.638Z,68.45
2023-02-28T01:20:55.303Z,68.40
2023-02-28T01:23:25.221Z,68.53
2023-02-28T01:25:53.902Z,68.57
2023-02-28T01:28:22.382Z,68.75
2023-02-28T01:30:52.264Z,68.80
2023-02-28T01:33:20.680Z,68.61
2023-02-28T01:35:49.424Z,69.05
2023-02-28T01:38:22.450Z,68.89
2023-02-28T01:40:51.975Z,69.03
2023-02-28T01:43:32.627Z,69.03
2023-02-28T01:46:00.937Z,69.29
2023-02-28T01:48:35.535Z,69.43
2023-02-28T01:51:10.920Z,69.72
2023-02-28T01:53:47.089Z,69.77
2023-02-28T01:56:21.686Z,69.97
2023-02-28T01:58:55.341Z,70.05
2023-02-28T02:01:27.331Z,69.96
2023-02-28T02:04:02.372Z,69.98
2023-02-28T02:06:39.567Z,70.22
2023-02-28T02:09:09.249Z,70.27
2023-02-28T02:11:40.201Z,70.60
2023-02-28T02:14:39.783Z,70.47
2023-02-28T02:17:14.663Z,70.67
2023-02-28T02:20:10.444Z,70.59
2023-02-28T02:23:16.593Z,70.58
2023-02-28T02:26:01.361Z,71.01
2023-02-28T02:28:54.419Z,70.90
2023-02-28T02:31:41.431Z,71.30
2023-02-28T02:34:24.858Z,71.43
2023-02-28T02:37:02.157Z,71.46
2023-02-28T02:39:46.193Z,71.38
2023-02-28T02:42:23.558Z,71.73
2023-02-28T02:44:58.076Z,71.66
2023-02-28T02:47:28.843Z,71.90
2023-02-28T02:50:02.032Z,71.58
2023-02-28T02:52:39.887Z,71.93
2023-02-28T02:55:12.227Z,72.03
2023-02-28T02:57:48.797Z,71.89
2023-02-28T03:00:20.669Z,72.08
2023-02-28T03:02:51.357Z,72.31
2023-02-28T03:05:32.237Z,72.20
2023-02-28T03:08:00.427Z,72.08
2023-02-28T03:10:40.277Z,72.24
2023-02-28T03:13:26.802Z,72.27
2023-02-28T03:16:00.454Z,72.26
2023-02-28T03:18:53.416Z,72.41
2023-02-28T03:21:46.578Z,72.54
2023-02-28T03:24:20.494Z,72.59
2023-02-28T03:26:57.057Z,72.48
2023-02-28T03:29:34.753Z,72.62
2023-02-28T03:32:30.083Z,72.88
2023-02-28T03:35:07.141Z,72.76
2023-02-28T03:37:39.514Z,72.75
2023-02-28T03:40:13.892Z,73.05
2023-02-28T03:42:45.552Z,73.19
2023-02-28T03:45:19.324Z,73.00
2023-02-28T03:48:19.216Z,73.24
2023-02-28T03:50:50.644Z,73.36
2023-02-28T03:53:40.449Z,73.52
2023-02-28T03:56:17.422Z,73.74
2023-02-28T03:58:49.793Z,73.53
2023-02-28T04:01:35.227Z,73.61
2023-02-28T04:04:04.196Z,73.67
2023-02-28T04:06:34.182Z,73.64
2023-02-28T04:09:04.891Z,73.86
2023-02-28T04:11:43.018Z,73.86
2023-02-28T04:14:11.915Z,73.97
2023-02-28T04:16:42.435Z,73.77
2023-02-28T04:19:13.169Z,74.01
2023-02-28T04:21:47.598Z,74.08
2023-02-28T04:24:18.363Z,74.20
2023-02-28T04:26:49.278Z,73.93
2023-02-28T04:29:29.675Z,74.02
2023-02-28T04:32:01.261Z,74.08
2023-02-28T04:34:32.576Z,74.01
2023-02-28T04:37:17.031Z,74.32
2023-02-28T04:39:45.665Z,74.04
2023-02-28T04:42:14.900Z,74.13
2023-02-28T04:44:42.927Z,74.26
2023-02-28T04:47:11.415Z,74.33
2023-02-28T04:49:39.610Z,74.32
2023-02-28T04:52:08.786Z,74.59
2023-02-28T04:54:37.174Z,74.71
2023-02-28T04:57:05.647Z,74.66
2023-02-28T04:59:34.126Z,74.65
2023-02-28T05:02:08.095Z,74.82
2023-02-28T05:04:37.303Z,74.96
2023-02-28T05:07:05.599Z,74.97
2023-02-28T05:09:34.420Z,75.13
2023-02-28T05:12:02.571Z,75.25
2023-02-28T05:14:30.739Z,75.17
2023-02-28T05:16:58.842Z,75.25
2023-02-28T05:19:26.871Z,75.14
2023-02-28T05:21:56.487Z,75.05
2023-02-28T05:24:24.793Z,75.28
2023-02-28T05:26:55.025Z,75.41
2023-02-28T05:29:23.712Z,75.21
2023-02-28T05:31:51.837Z,75.35
2023-02-28T05:34:20.114Z,75.26
2023-02-28T05:36:48.212Z,75.44
2023-02-28T05:39:16.161Z,75.54
2023-02-28T05:41:44.861Z,75.40
2023-02-28T05:44:13.595Z,75.48
2023-02-28T05:46:41.917Z,75.62
2023-02-28T05:49:10.162Z,75.67
2023-02-28T05:51:41.085Z,75.56
2023-02-28T05:54:09.912Z,75.43
2023-02-28T05:56:40.977Z,75.67
2023-02-28T05:59:09.041Z,75.62
2023-02-28T06:01:49.433Z,75.81
2023-02-28T06:04:31.139Z,75.97
2023-02-28T06:07:00.088Z,75.84
2023-02-28T06:09:28.435Z,75.99
2023-02-28T06:12:04.839Z,76.12
2023-02-28T06:14:34.738Z,76.00
2023-02-28T06:17:03.979Z,76.10
2023-02-28T06:19:32.428Z,76.29
2023-02-28T06:22:00.903Z,76.31
2023-02-28T06:24:29.250Z,76.44
2023-02-28T06:26:58.774Z,76.45
2023-02-28T06:29:27.136Z,76.28
2023-02-28T06:31:55.152Z,76.62
2023-02-28T06:34:23.587Z,76.53
2023-02-28T06:36:52.816Z,76.80
2023-02-28T06:39:21.006Z,76.98
2023-02-28T06:41:55.468Z,77.12
2023-02-28T06:44:25.310Z,77.18
2023-02-28T06:46:53.377Z,77.27
2023-02-28T06:49:21.534Z,77.38
2023-02-28T06:51:49.846Z,77.65
2023-02-28T06:54:17.908Z,77.45
2023-02-28T06:56:46.168Z,77.68
2023-02-28T06:59:14.479Z,77.45
2023-02-28T07:01:42.535Z,77.66
2023-02-28T07:04:10.683Z,77.76
2023-02-28T07:06:38.750Z,77.99
2023-02-28T07:09:06.873Z,78.05
2023-02-28T07:11:35.301Z,78.14
2023-02-28T07:14:03.583Z,77.92
2023-02-28T07:16:31.589Z,78.04
2023-02-28T07:18:59.718Z,77.84
2023-02-28T07:21:28.030Z,77.93
2023-02-28T07:23:57.807Z,77.95
2023-02-28T07:26:25.871Z,77.66
2023-02-28T07:28:54.248Z,77.47
2023-02-28T07:31:22.349Z,77.44
2023-02-28T07:33:50.535Z,77.50
2023-02-28T07:36:19.985Z,77.24
2023-02-28T07:38:51.275Z,77.06
2023-02-28T07:41:22.057Z,76.91
2023-02-28T07:43:50.170Z,76.72
2023-02-28T07:46:19.547Z,76.84
2023-02-28T07:48:47.540Z,76.97
2023-02-28T07:51:15.808Z,76.86
2023-02-28T07:53:43.771Z,75.96
2023-02-28T07:56:12.258Z,75.62
2023-02-28T07:58:40.227Z,75.41
2023-02-28T08:01:10.299Z,75.79
2023-02-28T08:03:39.672Z,75.92
2023-02-28T08:06:09.971Z,75.47
2023-02-28T08:08:37.959Z,75.09
2023-02-28T08:11:06.215Z,74.99
2023-02-28T08:13:34.919Z,74.86
2023-02-28T08:16:04.026Z,74.55
2023-02-28T08:18:34.106Z,74.18
2023-02-28T08:21:11.128Z,73.56
2023-02-28T08:23:39.270Z,73.17
2023-02-28T08:26:07.851Z,73.58
2023-02-28T08:28:35.787Z,73.55
2023-02-28T08:31:09.362Z,73.28
2023-02-28T08:33:40.104Z,72.21
2023-02-28T08:36:09.607Z,72.00
2023-02-28T08:38:38.542Z,71.94
2023-02-28T08:41:11.578Z,71.44
2023-02-28T08:43:40.792Z,71.10
2023-02-28T08:46:11.586Z,71.09
2023-02-28T08:48:40.801Z,70.93
2023-02-28T08:51:22.600Z,70.50
2023-02-28T08:53:50.582Z,70.18
2023-02-28T08:56:18.789Z,70.12
2023-02-28T08:58:49.349Z,70.11
2023-02-28T09:01:22.952Z,70.23
2023-02-28T09:03:52.654Z,69.71
2023-02-28T09:06:22.778Z,69.22
2023-02-28T09:08:51.450Z,68.94
2023-02-28T09:11:20.218Z,68.64
2023-02-28T09:13:48.223Z,68.51
2023-02-28T09:16:17.636Z,68.47
2023-02-28T09:18:46.229Z,67.96
2023-02-28T09:21:20.398Z,67.74
2023-02-28T09:23:50.612Z,67.87
2023-02-28T09:26:34.775Z,67.73
2023-02-28T09:29:10.822Z,67.44
2023-02-28T09:31:38.911Z,67.17
2023-02-28T09:34:07.959Z,67.40
2023-02-28T09:36:45.162Z,67.16
2023-02-28T09:39:16.623Z,66.62
2023-02-28T09:41:51.296Z,66.22
2023-02-28T09:44:38.825Z,66.37
2023-02-28T09:47:42.075Z,65.73
2023-02-28T09:50:28.089Z,65.51
2023-02-28T09:52:56.849Z,65.44
2023-02-28T09:55:41.449Z,65.28
2023-02-28T09:58:32.432Z,64.64
2023-02-28T10:01:31.234Z,64.34
2023-02-28T10:04:26.366Z,64.18
2023-02-28T10:06:54.685Z,64.04
2023-02-28T10:09:28.494Z,63.97
2023-02-28T10:12:03.044Z,63.70
2023-02-28T10:14:35.286Z,63.62
2023-02-28T10:17:11.442Z,63.07
2023-02-28T10:19:44.839Z,63.32
2023-02-28T10:22:23.371Z,63.16
2023-02-28T10:24:54.046Z,63.02
2023-02-28T10:27:24.958Z,62.80
2023-02-28T10:30:01.596Z,62.39
2023-02-28T10:32:37.122Z,62.06
2023-02-28T10:35:28.564Z,62.29
2023-02-28T10:38:01.998Z,62.05
2023-02-28T10:40:39.505Z,61.98
2023-02-28T10:43:21.618Z,62.01
2023-02-28T10:46:10.899Z,61.87
2023-02-28T10:48:51.173Z,61.46
2023-02-28T10:51:20.748Z,61.16
2023-02-28T10:54:03.363Z,61.11
2023-02-28T10:56:33.770Z,60.90
2023-02-28T10:59:31.385Z,60.96
2023-02-28T11:02:00.292Z,60.97
2023-02-28T11:04:33.737Z,61.12
2023-02-28T11:07:22.161Z,60.23
2023-02-28T11:09:55.203Z,60.42
2023-02-28T11:12:47.119Z,60.25
2023-02-28T11:15:27.192Z,59.97
2023-02-28T11:18:05.610Z,60.09
2023-02-28T11:20:35.415Z,59.73
2023-02-28T11:23:06.099Z,59.79
2023-02-28T11:25:37.909Z,59.59
2023-02-28T11:28:24.109Z,59.33
2023-02-28T11:31:03.137Z,59.46
2023-02-28T11:33:42.354Z,59.23
2023-02-28T11:36:18.025Z,59.22
2023-02-28T11:38:50.615Z,59.10
2023-02-28T11:41:56.793Z,59.35
2023-02-28T11:44:42.365Z,58.98
2023-02-28T11:47:41.348Z,58.81
2023-02-28T11:50:12.461Z,58.71
2023-02-28T11:52:57.328Z,58.31
2023-02-28T11:55:30.264Z,58.30
2023-02-28T11:58:52.670Z,58.41
2023-02-28T12:02:01.137Z,58.40
2023-02-28T12:04:43.284Z,58.05
2023-02-28T12:07:23.269Z,57.80
2023-02-28T12:09:57.280Z,57.57
2023-02-28T12:12:40.205Z,57.33
2023-02-28T12:15:45.524Z,57.43
2023-02-28T12:18:25.157Z,57.71
2023-02-28T12:21:18.149Z,57.71
2023-02-28T12:23:46.079Z,57.38
2023-02-28T12:26:14.660Z,57.61
2023-02-28T12:29:31.990Z,57.49
2023-02-28T12:32:07.759Z,57.11
2023-02-28T12:34:40.603Z,57.41
2023-02-28T12:37:18.645Z,56.90
2023-02-28T12:39:51.115Z,56.98
2023-02-28T12:42:29.527Z,56.53
2023-02-28T12:45:10.363Z,56.62
2023-02-28T12:47:43.588Z,56.71
2023-02-28T12:50:13.100Z,56.32
2023-02-28T12:53:06.536Z,56.82
2023-02-28T12:55:58.062Z,56.23
2023-02-28T12:58:42.416Z,56.19
2023-02-28T13:01:37.753Z,56.30
2023-02-28T13:04:18.823Z,56.23
2023-02-28T13:07:05.141Z,56.45
2023-02-28T13:09:33.479Z,56.38
2023-02-28T13:12:01.862Z,56.21
2023-02-28T13:14:35.898Z,56.06
2023-02-28T13:17:13.481Z,55.79
2023-02-28T13:19:55.787Z,55.78
2023-02-28T13:22:26.698Z,55.86
2023-02-28T13:24:56.644Z,55.89
2023-02-28T13:27:25.317Z,55.86
2023-02-28T13:29:54.707Z,55.90
2023-02-28T13:32:41.404Z,55.15
2023-02-28T13:35:09.378Z,55.13
2023-02-28T13:37:44.737Z,55.47
2023-02-28T13:40:12.704Z,55.55
2023-02-28T13:42:51.748Z,55.62
2023-02-28T13:45:31.258Z,55.65
2023-02-28T13:48:05.406Z,55.18
2023-02-28T13:50:39.179Z,55.52
2023-02-28T13:53:16.557Z,55.56
2023-02-28T13:55:55.086Z,55.41
2023-02-28T13:59:05.139Z,55.30
2023-02-28T14:01:45.472Z,54.97
2023-02-28T14:04:49.565Z,54.94
2023-02-28T14:07:30.545Z,54.90
2023-02-28T14:10:06.613Z,55.64
2023-02-28T14:12:57.657Z,55.47
2023-02-28T14:15:35.110Z,55.90
2023-02-28T14:18:06.950Z,55.85
2023-02-28T14:20:35.225Z,55.45
2023-02-28T14:23:15.640Z,55.53
2023-02-28T14:25:53.027Z,55.12
2023-02-28T14:28:42.002Z,55.57
2023-02-28T14:31:17.646Z,55.55
2023-02-28T14:34:23.382Z,55.16
2023-02-28T14:36:55.906Z,55.47
2023-02-28T14:39:26.933Z,55.44
2023-02-28T14:41:55.208Z,55.38
2023-02-28T14:44:28.986Z,55.45
2023-02-28T14:47:07.557Z,55.60
2023-02-28T14:49:39.738Z,55.63
2023-02-28T14:52:16.547Z,55.78
2023-02-28T14:54:45.930Z,55.56
2023-02-28T14:57:29.385Z,55.76
2023-02-28T15:00:11.685Z,55.65
2023-02-28T15:02:41.545Z,55.69
2023-02-28T15:05:18.519Z,55.53
2023-02-28T15:07:48.907Z,55.66
2023-02-28T15:10:17.016Z,55.69
2023-02-28T15:12:54.679Z,55.82
2023-02-28T15:15:31.929Z,55.71
2023-02-28T15:18:15.930Z,55.59
2023-02-28T15:20:45.684Z,55.91
2023-02-28T15:23:14.189Z,55.87
2023-02-28T15:25:43.285Z,56.01
2023-02-28T15:28:16.927Z,55.98
2023-02-28T15:31:01.053Z,56.02
2023-02-28T15:33:31.950Z,56.09
2023-02-28T15:36:18.679Z,56.22
2023-02-28T15:38:52.687Z,55.94
2023-02-28T15:41:30.109Z,56.15
2023-02-28T15:44:36.297Z,56.41
2023-02-28T15:47:07.691Z,56.45
2023-02-28T15:49:46.813Z,56.40
2023-02-28T15:52:22.576Z,56.55
2023-02-28T15:54:50.745Z,56.82
2023-02-28T15:57:22.840Z,56.75
2023-02-28T15:59:57.477Z,56.70
2023-02-28T16:02:37.413Z,56.87
2023-02-28T16:05:11.418Z,56.95
2023-02-28T16:07:41.455Z,57.07
2023-02-28T16:10:12.443Z,57.34
2023-02-28T16:12:41.856Z,57.51
2023-02-28T16:15:20.779Z,57.95
2023-02-28T16:17:49.481Z,57.93
2023-02-28T16:20:26.554Z,58.26
2023-02-28T16:22:55.658Z,58.34
2023-02-28T16:25:37.200Z,58.89
2023-02-28T16:28:09.810Z,59.52
2023-02-28T16:30:37.816Z,60.08
2023-02-28T16:33:09.024Z,60.30
2023-02-28T16:35:37.092Z,60.33
2023-02-28T16:38:05.300Z,60.28
2023-02-28T16:40:36.157Z,60.38
2023-02-28T16:43:16.530Z,60.29
2023-02-28T16:45:44.817Z,60.56
2023-02-28T16:48:16.338Z,60.57
2023-02-28T16:50:47.433Z,60.64
2023-02-28T16:53:16.221Z,60.81
2023-02-28T16:55:44.924Z,60.89
2023-02-28T16:58:18.432Z,61.24
2023-02-28T17:00:46.429Z,61.36
2023-02-28T17:03:32.662Z,61.63
2023-02-28T17:06:02.240Z,61.96
2023-02-28T17:08:33.195Z,61.96
2023-02-28T17:11:02.822Z,62.10
2023-02-28T17:13:31.000Z,62.23
2023-02-28T17:15:59.185Z,62.71
2023-02-28T17:18:27.989Z,62.80
2023-02-28T17:20:55.929Z,62.96
2023-02-28T17:23:25.032Z,62.98
2023-02-28T17:25:57.950Z,63.18
2023-02-28T17:28:26.509Z,63.11
2023-02-28T17:30:54.699Z,63.27
2023-02-28T17:33:22.742Z,63.33
2023-02-28T17:35:50.841Z,63.68
2023-02-28T17:38:20.662Z,63.70
2023-02-28T17:40:48.701Z,63.90
2023-02-28T17:43:16.980Z,64.15
2023-02-28T17:45:45.140Z,64.29
2023-02-28T17:48:13.848Z,64.52
2023-02-28T17:50:42.224Z,64.62
2023-02-28T17:53:10.412Z,64.70
2023-02-28T17:55:38.765Z,64.90
2023-02-28T17:58:07.035Z,65.23
2023-02-28T18:00:35.018Z,65.27
2023-02-28T18:03:03.143Z,65.42
2023-02-28T18:05:32.684Z,65.73
2023-02-28T18:08:01.681Z,65.71
2023-02-28T18:10:29.954Z,65.82
2023-02-28T18:12:58.019Z,66.08
2023-02-28T18:15:26.198Z,66.29
2023-02-28T18:17:54.178Z,66.55
2023-02-28T18:20:22.642Z,66.46
2023-02-28T18:22:50.724Z,66.58
2023-02-28T18:25:19.090Z,66.76
2023-02-28T18:27:59.152Z,66.74
2023-02-28T18:30:32.946Z,67.35
2023-02-28T18:33:02.164Z,67.14
2023-02-28T18:35:37.672Z,67.50
2023-02-28T18:38:19.410Z,67.35
2023-02-28T18:40:59.426Z,67.64
2023-02-28T18:43:28.527Z,68.26
2023-02-28T18:45:56.598Z,68.60
2023-02-28T18:48:24.906Z,68.50
2023-02-28T18:50:53.052Z,68.60
2023-02-28T18:53:21.019Z,68.59
2023-02-28T18:55:49.014Z,68.95
2023-02-28T18:58:17.160Z,69.10
2023-02-28T19:00:45.430Z,69.26
2023-02-28T19:03:13.857Z,69.44
2023-02-28T19:05:41.999Z,69.28
2023-02-28T19:08:10.473Z,69.61
2023-02-28T19:10:40.416Z,69.74
2023-02-28T19:13:08.367Z,69.73
2023-02-28T19:15:36.629Z,69.93
2023-02-28T19:18:04.731Z,70.07
2023-02-28T19:20:32.762Z,69.90
2023-02-28T19:23:01.517Z,69.83
2023-02-28T19:25:29.620Z,69.94
2023-02-28T19:27:57.844Z,69.79
2023-02-28T19:30:26.393Z,69.85
2023-02-28T19:32:54.943Z,70.35
2023-02-28T19:35:23.143Z,70.33
2023-02-28T19:37:52.856Z,70.11
2023-02-28T19:40:20.814Z,70.30
2023-02-28T19:42:48.781Z,70.32
2023-02-28T19:45:16.852Z,70.35
2023-02-28T19:47:44.921Z,70.43
2023-02-28T19:50:12.967Z,70.47
2023-02-28T19:55:10.366Z,70.46
2023-02-28T19:57:38.343Z,70.56
2023-02-28T20:00:07.279Z,70.93
2023-02-28T20:02:41.753Z,70.85
2023-02-28T20:05:10.330Z,70.95
2023-02-28T20:07:38.335Z,71.12
2023-02-28T20:10:07.003Z,71.33
2023-02-28T20:12:35.058Z,71.49
2023-02-28T20:15:03.843Z,71.43
2023-02-28T20:17:31.913Z,71.75
2023-02-28T20:19:59.887Z,71.69
2023-02-28T20:22:28.114Z,71.72
2023-02-28T20:24:56.137Z,71.79
2023-02-28T20:27:24.105Z,71.90
2023-02-28T20:29:53.501Z,71.52
2023-02-28T20:32:21.605Z,71.65
2023-02-28T20:34:49.537Z,71.89
2023-02-28T20:37:17.508Z,71.66
2023-02-28T20:39:46.004Z,71.89
2023-02-28T20:42:13.967Z,72.13
2023-02-28T20:44:41.973Z,72.29
2023-02-28T20:47:09.903Z,72.19
2023-02-28T20:49:37.869Z,72.38
2023-02-28T20:52:05.866Z,72.31
2023-02-28T20:54:36.260Z,72.46
2023-02-28T20:57:04.338Z,72.60
2023-02-28T20:59:32.532Z,73.04
2023-02-28T21:02:00.572Z,72.78
2023-02-28T21:04:29.160Z,73.38
2023-02-28T21:06:57.125Z,73.25
2023-02-28T21:09:25.507Z,73.36
2023-02-28T21:11:54.455Z,73.19
2023-02-28T21:14:22.475Z,73.33
2023-02-28T21:16:50.547Z,73.91
2023-02-28T21:19:19.031Z,73.10
2023-02-28T21:21:48.401Z,73.73
2023-02-28T21:24:18.986Z,73.77
2023-02-28T21:26:47.949Z,73.81
2023-02-28T21:29:16.223Z,73.92
2023-02-28T21:31:44.648Z,73.79
2023-02-28T21:34:13.804Z,73.92
2023-02-28T21:36:45.926Z,74.04
2023-02-28T21:39:21.959Z,74.04
2023-02-28T21:41:50.296Z,74.33
2023-02-28T21:44:18.959Z,74.56
2023-02-28T21:46:50.424Z,74.34
2023-02-28T21:49:18.910Z,74.44
2023-02-28T21:51:46.857Z,74.56
2023-02-28T21:54:14.859Z,74.85
2023-02-28T21:56:43.044Z,74.89
2023-02-28T21:59:11.298Z,75.07
2023-02-28T22:01:43.609Z,75.08
2023-02-28T22:04:21.567Z,75.14
2023-02-28T22:06:52.853Z,75.35
2023-02-28T22:09:21.725Z,75.22
2023-02-28T22:11:50.612Z,75.14
2023-02-28T22:14:18.852Z,75.31
2023-02-28T22:16:52.375Z,75.45
2023-02-28T22:19:22.715Z,75.36
2023-02-28T22:21:51.825Z,75.44
2023-02-28T22:24:23.541Z,75.70
2023-02-28T22:26:52.634Z,75.62
2023-02-28T22:29:21.328Z,75.66
2023-02-28T22:31:49.729Z,75.76
2023-02-28T22:34:17.938Z,75.76
2023-02-28T22:36:46.065Z,75.72
2023-02-28T22:39:14.119Z,75.73
2023-02-28T22:41:42.188Z,76.04
2023-02-28T22:44:11.185Z,76.47
2023-02-28T22:46:39.532Z,76.38
2023-02-28T22:49:08.035Z,76.51
2023-02-28T22:51:36.740Z,76.36
2023-02-28T22:54:05.105Z,76.35
2023-02-28T22:56:33.344Z,76.64
2023-02-28T22:59:02.831Z,76.92
2023-02-28T23:01:33.625Z,76.98
2023-02-28T23:04:02.937Z,77.04
2023-02-28T23:06:42.350Z,77.05
2023-02-28T23:09:18.224Z,76.91
2023-02-28T23:11:49.044Z,77.38
2023-02-28T23:14:19.261Z,77.06
2023-02-28T23:16:55.031Z,77.09
2023-02-28T23:19:29.936Z,77.55
2023-02-28T23:21:59.548Z,77.65
2023-02-28T23:24:30.321Z,77.55
2023-02-28T23:27:01.965Z,77.79
2023-02-28T23:29:30.114Z,77.61
2023-02-28T23:31:58.247Z,77.79
2023-02-28T23:34:28.250Z,77.93
2023-02-28T23:37:01.734Z,77.97
2023-02-28T23:39:32.452Z,77.67
2023-02-28T23:42:01.979Z,77.91
2023-02-28T23:44:30.213Z,78.03
2023-02-28T23:46:58.290Z,78.38
2023-02-28T23:49:26.374Z,78.29
2023-02-28T23:51:54.685Z,78.35
2023-02-28T23:54:23.006Z,78.01
2023-02-28T23:56:51.087Z,78.50
2023-02-28T23:59:19.669Z,78.48
